Troodos, Cyprus
Current Conditions -  °F | °C
As of 7:50 PM on Thursday 23 Oct 2014 (Local Time) from LCRA Reporting Station
Clear Clear  
Wind Chill: 70°   Ceiling: Unl
Heat Index: 70°   Visibility: 6mi
Dew Point: 63°   Wind: 1mph
Humidity: 78%   Direction: 140°SE
Pressure: 29.97"   Gusts: NA
Location:  34.93°N, 32.87°E
Report Text: LCRA 231650Z 14001KT CAVOK 21/17 Q1015 NOSIG
Loading
Personal Weather Stations






























Interactive Weather Map
Tropical Storm Tracking
New forecast layout! Learn more

10-Day Weather Forecast

Advertisements
Track Severe Weather on mobile